Latest Weather Observations for Parawa West

IDS60901

Issued at 9:51 am CST Monday 3 August 2015 (issued every 10 minutes, with the page automatically refreshed every 10 minutes)

About weather observations | Map of Adelaide area stations | Latest observations for Adelaide area | Other Formats
Station Details ID: 023875 Name: SECOND VALLEY FOREST AWS Lat: -35.57 Lon: 138.29 Height: 341.0 m
Data from the previous 72 hours. | See also: Recent months at Parawa West
Date/Time
CST
Tmp

°C
App
Tmp
°C
Dew
Point
°C
Rel
Hum
%
Delta-T

°C
Wind Press
QNH
hPa
Press
MSL
hPa
Rain
since
9 am
mm
Dir
 
Spd
km/h
Gust
km/h
Spd
kts
Gust
kts
03/09:30am 7.7 4.0 6.5 92 0.6 SW 15 26 8 14 1024.1 1024.4 0.2
03/09:00am 7.9 4.7 6.8 93 0.5 SW 13 20 7 11 1023.9 1024.2 2.2
03/08:30am 7.3 4.4 6.4 94 0.4 SW 11 20 6 11 1023.7 1024.0 2.2
03/08:00am 7.4 4.1 6.5 94 0.4 WSW 13 20 7 11 1023.1 1023.4 2.2
03/07:30am 7.2 3.1 6.3 94 0.4 SW 17 30 9 16 1022.8 1023.1 2.2
03/07:00am 7.1 3.3 6.0 93 0.5 WSW 15 20 8 11 1022.3 1022.6 2.0
03/06:30am 7.4 2.8 6.3 93 0.5 WSW 20 37 11 20 1022.2 1022.5 2.0
03/06:00am 7.7 3.3 6.6 93 0.5 WSW 19 28 10 15 1021.7 1022.0 1.4
03/05:30am 7.7 3.1 6.6 93 0.5 WSW 20 32 11 17 1021.5 1021.8 1.4
03/05:00am 7.5 2.9 6.6 94 0.4 WSW 20 35 11 19 1021.5 1021.8 1.4
03/04:30am 7.3 3.2 6.2 93 0.5 W 17 24 9 13 1021.3 1021.6 1.2
03/04:00am 7.8 3.0 5.8 87 0.9 W 20 35 11 19 1021.0 1021.3 0.8
03/03:30am 7.7 3.0 6.2 90 0.7 W 20 32 11 17 1021.0 1021.3 0.8
03/03:00am 7.9 3.5 6.4 90 0.7 W 19 28 10 15 1021.3 1021.6 0.8
03/02:30am 8.1 3.7 6.6 90 0.7 W 19 30 10 16 1021.3 1021.6 0.8
03/02:00am 8.2 3.3 7.0 92 0.6 WSW 22 37 12 20 1021.1 1021.4 0.8
03/01:30am 8.2 4.7 7.1 93 0.5 WSW 15 26 8 14 1021.0 1021.3 0.8
03/01:00am 8.4 4.1 7.2 92 0.6 W 19 30 10 16 1020.9 1021.2 0.8
03/12:30am 8.5 4.1 7.3 92 0.6 W 20 33 11 18 1021.0 1021.3 0.6
03/12:00am 8.7 5.1 6.8 88 0.9 W 15 24 8 13 1021.0 1021.3 0.4
 
Date/Time
CST
Tmp

°C
App
Tmp
°C
Dew
Point
°C
Rel
Hum
%
Delta-T

°C
Wind Press
QNH
hPa
Press
MSL
hPa
Rain
since
9 am
mm
Dir
 
Spd
km/h
Gust
km/h
Spd
kts
Gust
kts
02/11:30pm 8.2 4.9 6.5 89 0.8 WNW 13 22 7 12 1020.9 1021.2 0.4
02/11:00pm 8.4 4.7 6.4 87 0.9 W 15 28 8 15 1020.9 1021.2 0.4
02/10:30pm 8.9 4.4 6.3 84 1.2 W 19 30 10 16 1021.0 1021.3 0.4
02/10:00pm 8.8 5.4 5.7 81 1.4 WNW 13 24 7 13 1021.0 1021.3 0.4
02/09:30pm 8.6 4.4 5.7 82 1.3 W 17 26 9 14 1020.9 1021.2 0.4
02/09:00pm 8.7 4.5 5.6 81 1.4 WNW 17 28 9 15 1020.8 1021.0 0.4
02/08:30pm 8.5 3.7 5.4 81 1.4 W 20 35 11 19 1020.6 1020.8 0.4
02/08:00pm 8.7 5.1 4.9 77 1.7 WNW 13 24 7 13 1020.6 1020.8 0.4
02/07:30pm 8.8 5.1 4.6 75 1.9 WNW 13 22 7 12 1020.2 1020.5 0.4
02/07:00pm 8.8 5.1 4.4 74 2.0 WNW 13 20 7 11 1020.0 1020.3 0.4
02/06:30pm 8.8 3.8 4.6 75 1.9 W 20 32 11 17 1019.8 1020.1 0.4
02/06:00pm 9.0 5.3 6.4 84 1.2 WNW 15 28 8 15 1019.2 1019.5 0.4
02/05:30pm 9.4 5.4 6.5 82 1.4 W 17 24 9 13 1018.9 1019.2 0.4
02/05:00pm 10.2 6.6 6.9 80 1.6 WNW 15 24 8 13 1018.6 1018.9 0.4
02/04:30pm 10.1 6.6 7.3 83 1.4 WNW 15 24 8 13 1018.4 1018.7 0.4
02/04:00pm 10.5 5.2 6.8 78 1.8 WNW 24 37 13 20 1018.2 1018.4 0.4
02/03:30pm 9.9 6.0 7.0 82 1.4 W 17 32 9 17 1018.3 1018.5 0.4
02/03:00pm 9.9 5.3 8.0 88 0.9 WNW 22 37 12 20 1018.2 1018.4 0.0
02/02:30pm 10.6 5.6 8.0 84 1.3 W 24 35 13 19 1017.8 1018.0 0.0
02/02:00pm 9.9 4.1 7.8 87 1.0 W 28 44 15 24 1017.8 1018.0 0.0
02/01:30pm 10.2 4.3 7.4 83 1.4 WNW 28 43 15 23 1017.6 1017.8 0.0
02/01:00pm 10.3 5.1 7.4 82 1.4 WNW 24 41 13 22 1017.7 1017.9 0.0
02/12:30pm 9.5 4.4 7.8 89 0.8 WNW 24 43 13 23 1018.2 1018.4 0.0
02/12:00pm 10.2 4.9 6.7 79 1.7 WNW 24 39 13 21 1018.2 1018.4 0.0
02/11:30am 9.8 2.8 5.8 76 1.9 WNW 32 52 17 28 1018.3 1018.5 0.0
02/11:28am 10.1 3.9 6.1 76 1.9 WNW 28 46 15 25 1018.4 1018.7 0.0
02/11:00am 9.9 4.1 6.3 78 1.7 W 26 39 14 21 1018.6 1018.9 0.0
02/10:30am 9.9 4.5 6.4 79 1.7 W 24 37 13 20 1018.5 1018.8 0.0
02/10:00am 9.2 3.7 5.9 80 1.5 WNW 24 41 13 22 1018.4 1018.7 0.0
02/09:30am 8.6 2.7 5.7 82 1.3 W 26 43 14 23 1018.2 1018.4 0.0
02/09:00am 8.3 2.4 5.8 84 1.2 W 26 37 14 20 1018.1 1018.3 -
02/08:30am 7.8 2.6 5.4 85 1.1 WNW 22 32 12 17 1018.1 1018.3 -
02/08:00am 6.7 1.9 4.5 86 1.0 WNW 19 28 10 15 1017.9 1018.1 -
02/07:30am 5.8 2.0 4.0 88 0.8 WNW 13 19 7 10 1017.7 1017.9 -
02/07:00am 5.3 1.8 3.5 88 0.8 WNW 11 19 6 10 1017.6 1017.8 -
02/06:30am 5.3 2.2 3.5 88 0.8 WNW 9 15 5 8 1017.4 1017.6 -
02/06:00am 5.5 1.6 3.2 85 1.0 WNW 13 19 7 10 1017.0 1017.3 -
02/05:30am 5.5 1.7 3.7 88 0.8 W 13 17 7 9 1016.8 1017.1 -
02/05:00am 5.8 2.4 3.8 87 0.9 W 11 17 6 9 1016.7 1017.0 -
02/04:30am 6.3 2.9 4.0 85 1.0 W 11 13 6 7 1016.8 1017.1 -
02/04:00am 6.5 2.3 3.8 83 1.2 W 15 20 8 11 1016.9 1017.2 -
02/03:30am 6.4 2.6 3.7 83 1.2 W 13 17 7 9 1017.1 1017.4 -
02/03:00am 7.0 3.1 3.6 79 1.5 W 13 22 7 12 1017.4 1017.6 0.0
02/02:30am 6.1 2.9 2.9 80 1.4 WNW 9 13 5 7 1017.3 1017.5 -
02/02:00am 6.2 3.3 2.7 78 1.5 WNW 7 11 4 6 1017.3 1017.5 -
02/01:30am 6.0 3.1 2.6 79 1.4 W 7 9 4 5 1017.4 1017.6 -
02/01:00am 6.5 2.9 3.1 79 1.5 W 11 15 6 8 1017.8 1018.0 -
02/12:30am 6.4 2.8 2.9 78 1.5 W 11 13 6 7 1017.8 1018.0 -
02/12:00am 6.3 2.6 2.6 77 1.6 W 11 17 6 9 1018.0 1018.2 -
 
Date/Time
CST
Tmp

°C
App
Tmp
°C
Dew
Point
°C
Rel
Hum
%
Delta-T

°C
Wind Press
QNH
hPa
Press
MSL
hPa
Rain
since
9 am
mm
Dir
 
Spd
km/h
Gust
km/h
Spd
kts
Gust
kts
01/11:30pm 6.7 3.4 2.2 73 1.9 WSW 9 13 5 7 1017.8 1018.0 -
01/11:00pm 6.8 3.5 2.7 75 1.7 WSW 9 13 5 7 1017.8 1018.0 -
01/10:30pm 6.8 3.6 2.9 76 1.7 WSW 9 13 5 7 1017.8 1018.0 -
01/10:00pm 7.0 4.2 2.9 75 1.7 SW 7 11 4 6 1017.8 1018.0 -
01/09:30pm 6.9 4.2 2.8 75 1.7 SSW 6 9 3 5 1017.8 1018.0 -
01/09:00pm 7.0 4.4 3.1 76 1.7 SSW 6 7 3 4 1017.6 1017.8 0.0
01/08:30pm 6.9 4.4 3.7 80 1.4 SSW 6 7 3 4 1017.3 1017.5 -
01/08:00pm 6.8 4.8 4.3 84 1.1 S 4 6 2 3 1017.0 1017.3 -
01/07:30pm 7.0 4.9 4.1 82 1.3 S 4 7 2 4 1017.0 1017.3 -
01/07:00pm 6.9 5.8 4.9 87 0.9 CALM 0 4 0 2 1016.7 1017.0 -
01/06:30pm 6.8 4.9 4.8 87 0.9 S 4 6 2 3 1016.3 1016.6 -
01/06:00pm 7.0 4.5 4.7 85 1.0 SSE 7 11 4 6 1016.0 1016.3 -
01/05:30pm 7.1 4.8 4.6 84 1.1 S 6 9 3 5 1015.8 1016.0 -
01/05:00pm 7.1 5.1 4.6 84 1.1 S 4 7 2 4 1015.8 1016.0 -
01/04:30pm 7.5 5.2 4.6 82 1.3 S 6 9 3 5 1015.8 1016.0 -
01/04:00pm 7.6 5.0 4.4 80 1.4 S 7 9 4 5 1015.9 1016.2 -
01/03:30pm 7.8 5.1 3.8 76 1.8 ESE 7 13 4 7 1015.2 1015.4 -
01/03:00pm 7.9 5.3 4.3 78 1.6 S 7 11 4 6 1015.4 1015.6 -
01/02:30pm 7.9 4.9 4.3 78 1.6 SSE 9 13 5 7 1016.1 1016.4 -
01/02:00pm 7.9 4.5 4.1 77 1.7 SE 11 15 6 8 1014.9 1015.1 -
01/01:30pm 8.2 5.6 4.0 75 1.9 S 7 9 4 5 1016.3 1016.6 -
01/01:00pm 8.1 5.9 3.2 71 2.1 S 4 6 2 3 1016.9 1017.2 -
01/12:30pm 8.3 4.8 3.6 72 2.1 SSE 11 15 6 8 1015.9 1016.2 -
01/12:00pm 8.3 4.5 3.8 73 2.0 S 13 17 7 9 1016.9 1017.2 -
01/11:30am 8.3 4.6 4.5 77 1.7 SSW 13 19 7 10 1017.9 1018.1 0.0
01/11:00am 8.4 3.6 4.4 76 1.8 SSE 19 24 10 13 1016.0 1016.3 0.0
01/10:30am 8.5 4.2 5.3 80 1.5 SSE 17 24 9 13 1016.3 1016.6 0.0
01/10:00am 8.4 3.6 4.8 78 1.6 S 19 24 10 13 1016.1 1016.4 0.0
01/09:30am 8.3 4.1 5.6 83 1.2 S 17 20 9 11 1016.1 1016.4 0.0
01/09:00am 8.3 3.5 5.8 84 1.2 S 20 26 11 14 1016.0 1016.3 5.2
01/08:30am 8.3 4.1 5.9 85 1.1 S 17 22 9 12 1015.7 1016.0 5.2
01/08:00am 8.2 4.1 6.3 88 0.9 S 17 24 9 13 1015.2 1015.5 5.2
01/07:30am 8.0 4.0 6.5 90 0.7 SSW 17 22 9 12 1015.5 1015.8 5.2
01/07:00am 7.8 3.3 7.1 95 0.3 SSW 20 30 11 16 1014.4 1014.7 5.2
01/06:30am 8.3 3.5 7.5 95 0.4 S 22 30 12 16 1013.9 1014.2 5.0
01/06:00am 8.1 3.0 7.5 96 0.3 S 24 35 13 19 1013.2 1013.5 5.0
01/05:30am 8.4 3.8 8.0 97 0.2 S 22 30 12 16 1013.1 1013.4 4.8
01/05:00am 8.8 4.3 8.4 97 0.2 SSW 22 33 12 18 1012.7 1013.0 4.4
01/04:30am 8.9 4.4 8.5 97 0.2 SSW 22 33 12 18 1012.3 1012.6 4.0
01/04:00am 8.8 4.6 8.4 97 0.2 SSW 20 30 11 16 1011.9 1012.2 3.6
01/03:30am 8.7 4.7 8.3 97 0.2 SW 19 28 10 15 1011.8 1012.1 3.4
01/03:00am 9.2 4.4 8.7 97 0.2 SW 24 37 13 20 1011.9 1012.2 3.4
01/02:48am 10.0 3.8 9.5 97 0.3 W 32 50 17 27 1011.8 1012.1 3.4
01/02:43am 11.0 5.5 10.5 97 0.3 WNW 30 44 16 24 1011.4 1011.6 3.4
01/02:30am 11.3 6.6 10.8 97 0.3 NW 26 43 14 23 1010.9 1011.2 2.0
01/02:00am 11.3 7.4 10.8 97 0.3 NW 22 37 12 20 1010.8 1011.1 1.2
01/01:30am 11.0 6.3 10.5 97 0.3 NW 26 39 14 21 1010.9 1011.2 1.2
01/01:00am 10.8 6.8 10.3 97 0.3 NNW 22 32 12 17 1011.3 1011.5 1.2
01/12:30am 10.7 6.2 10.1 96 0.3 NNW 24 37 13 20 1011.4 1011.6 1.2
01/12:00am 10.7 6.5 9.9 95 0.4 NNW 22 30 12 16 1011.6 1011.8 0.2
 
Date/Time
CST
Tmp

°C
App
Tmp
°C
Dew
Point
°C
Rel
Hum
%
Delta-T

°C
Wind Press
QNH
hPa
Press
MSL
hPa
Rain
since
9 am
mm
Dir
 
Spd
km/h
Gust
km/h
Spd
kts
Gust
kts
31/11:30pm 10.9 5.9 9.5 91 0.7 NNW 26 39 14 21 1011.7 1012.0 0.0
31/11:00pm 11.2 6.1 9.3 88 1.0 NNW 26 46 14 25 1011.5 1011.7 0.0
31/10:30pm 11.2 7.2 9.1 87 1.1 NW 20 33 11 18 1011.5 1011.7 0.0
31/10:00pm 11.1 7.2 8.7 85 1.2 NW 19 30 10 16 1011.5 1011.7 0.0
31/09:30pm 10.9 7.8 8.8 87 1.1 NNW 15 28 8 15 1012.1 1012.4 0.0
31/09:00pm 10.9 7.5 9.0 88 1.0 NW 17 24 9 13 1012.5 1012.8 0.0
31/08:30pm 10.6 7.5 9.0 90 0.8 NW 15 24 8 13 1012.8 1013.1 0.0
31/08:00pm 10.7 8.3 8.8 88 1.0 NW 11 19 6 10 1012.9 1013.2 0.0
31/07:30pm 10.5 8.4 8.4 87 1.0 NW 9 19 5 10 1013.1 1013.4 0.0
31/07:00pm 10.2 8.1 8.1 87 1.0 NW 9 17 5 9 1013.1 1013.4 0.0
31/06:30pm 9.8 7.6 7.9 88 0.9 NW 9 13 5 7 1013.5 1013.8 0.0
31/06:00pm 9.5 7.6 7.6 88 0.9 NNW 7 13 4 7 1013.5 1013.8 0.0
31/05:30pm 9.7 7.1 7.6 87 1.0 NNW 11 17 6 9 1013.7 1014.0 0.0
31/05:00pm 9.6 6.9 7.2 85 1.2 NW 11 17 6 9 1013.4 1013.7 0.0
31/04:30pm 10.0 7.3 7.4 84 1.3 NW 11 22 6 12 1013.6 1013.9 0.0
31/04:00pm 9.9 5.6 7.2 83 1.3 NNW 19 30 10 16 1014.3 1014.6 0.0
31/03:30pm 9.8 6.2 6.7 81 1.5 NW 15 26 8 14 1014.4 1014.7 0.0
31/03:00pm 9.8 5.7 6.2 78 1.7 NW 17 28 9 15 1014.6 1014.9 0.0
31/02:30pm 9.3 4.7 5.7 78 1.7 NW 19 39 10 21 1014.5 1014.8 0.0
31/02:00pm 9.5 5.6 5.5 76 1.9 NW 15 22 8 12 1014.7 1015.0 0.0
31/01:30pm 9.5 5.3 5.5 76 1.9 NW 17 32 9 17 1015.2 1015.5 0.0
31/01:00pm 9.3 5.4 5.5 77 1.8 NW 15 26 8 14 1016.1 1016.4 0.0
31/12:30pm 9.7 5.6 4.5 70 2.4 NW 15 24 8 13 1016.8 1017.2 0.0
31/12:00pm 9.9 5.9 4.9 71 2.3 NW 15 26 8 14 1017.7 1018.0 0.0
31/11:30am 9.1 5.1 4.7 74 2.0 NW 15 28 8 15 1018.1 1018.4 0.0
31/11:00am 8.4 3.2 3.3 70 2.2 NW 20 33 11 18 1018.7 1019.0 0.0
31/10:30am 8.5 5.0 5.3 80 1.5 NNW 13 26 7 14 1019.1 1019.5 0.0
31/10:00am 7.9 5.8 5.7 86 1.0 NNW 6 15 3 8 1019.5 1019.9 0.0

Latest Capital City Observations: Canberra | Sydney | Melbourne | Brisbane | Adelaide | Perth | Hobart | Darwin

Other Formats:

Comma delimited format used in spreadsheet applications
http://www.bom.gov.au/fwo/IDS60901/IDS60901.94811.axf

JavaScript Object Notation format (JSON) in row-major order
http://www.bom.gov.au/fwo/IDS60901/IDS60901.94811.json